sensor_id;sensor_type;location;lat;lon;timestamp;temperature;humidity
78896;HTU21D;68284;59.124;37.910;2023-07-13T00:01:59;14.54;79.53
78896;HTU21D;68284;59.124;37.910;2023-07-13T00:04:25;14.52;79.56
78896;HTU21D;68284;59.124;37.910;2023-07-13T00:06:52;14.52;79.60
78896;HTU21D;68284;59.124;37.910;2023-07-13T00:09:19;14.56;79.56
78896;HTU21D;68284;59.124;37.910;2023-07-13T00:11:50;14.56;79.59
78896;HTU21D;68284;59.124;37.910;2023-07-13T00:14:17;14.58;79.50
78896;HTU21D;68284;59.124;37.910;2023-07-13T00:16:43;14.59;79.44
78896;HTU21D;68284;59.124;37.910;2023-07-13T00:19:11;14.58;79.31
78896;HTU21D;68284;59.124;37.910;2023-07-13T00:21:41;14.60;79.16
78896;HTU21D;68284;59.124;37.910;2023-07-13T00:24:13;14.58;79.05
78896;HTU21D;68284;59.124;37.910;2023-07-13T00:26:41;14.54;79.12
78896;HTU21D;68284;59.124;37.910;2023-07-13T00:29:12;14.53;79.24
78896;HTU21D;68284;59.124;37.910;2023-07-13T00:31:38;14.49;79.34
78896;HTU21D;68284;59.124;37.910;2023-07-13T00:34:04;14.48;79.46
78896;HTU21D;68284;59.124;37.910;2023-07-13T00:36:31;14.45;79.57
78896;HTU21D;68284;59.124;37.910;2023-07-13T00:38:57;14.42;79.59
78896;HTU21D;68284;59.124;37.910;2023-07-13T00:41:24;14.44;79.58
78896;HTU21D;68284;59.124;37.910;2023-07-13T00:43:50;14.47;79.62
78896;HTU21D;68284;59.124;37.910;2023-07-13T00:46:18;14.49;79.63
78896;HTU21D;68284;59.124;37.910;2023-07-13T00:48:46;14.50;79.51
78896;HTU21D;68284;59.124;37.910;2023-07-13T00:51:21;14.51;79.52
78896;HTU21D;68284;59.124;37.910;2023-07-13T00:53:48;14.51;79.49
78896;HTU21D;68284;59.124;37.910;2023-07-13T00:56:15;14.51;79.56
78896;HTU21D;68284;59.124;37.910;2023-07-13T00:58:42;14.51;79.68
78896;HTU21D;68284;59.124;37.910;2023-07-13T01:01:08;14.52;79.75
78896;HTU21D;68284;59.124;37.910;2023-07-13T01:03:34;14.53;79.73
78896;HTU21D;68284;59.124;37.910;2023-07-13T01:06:01;14.52;79.56
78896;HTU21D;68284;59.124;37.910;2023-07-13T01:08:27;14.51;79.53
78896;HTU21D;68284;59.124;37.910;2023-07-13T01:10:56;14.48;79.62
78896;HTU21D;68284;59.124;37.910;2023-07-13T01:13:22;14.48;79.68
78896;HTU21D;68284;59.124;37.910;2023-07-13T01:15:50;14.44;79.74
78896;HTU21D;68284;59.124;37.910;2023-07-13T01:18:21;14.45;79.81
78896;HTU21D;68284;59.124;37.910;2023-07-13T01:21:00;14.44;79.74
78896;HTU21D;68284;59.124;37.910;2023-07-13T01:23:28;14.40;79.75
78896;HTU21D;68284;59.124;37.910;2023-07-13T01:25:56;14.39;79.85
78896;HTU21D;68284;59.124;37.910;2023-07-13T01:28:23;14.40;79.94
78896;HTU21D;68284;59.124;37.910;2023-07-13T01:30:54;14.40;79.99
78896;HTU21D;68284;59.124;37.910;2023-07-13T01:33:22;14.42;79.99
78896;HTU21D;68284;59.124;37.910;2023-07-13T01:35:49;14.43;80.05
78896;HTU21D;68284;59.124;37.910;2023-07-13T01:38:17;14.44;80.06
78896;HTU21D;68284;59.124;37.910;2023-07-13T01:40:44;14.44;80.05
78896;HTU21D;68284;59.124;37.910;2023-07-13T01:43:10;14.42;80.14
78896;HTU21D;68284;59.124;37.910;2023-07-13T01:45:37;14.42;80.22
78896;HTU21D;68284;59.124;37.910;2023-07-13T01:48:03;14.43;80.27
78896;HTU21D;68284;59.124;37.910;2023-07-13T01:50:33;14.41;80.29
78896;HTU21D;68284;59.124;37.910;2023-07-13T01:52:59;14.43;80.30
78896;HTU21D;68284;59.124;37.910;2023-07-13T01:55:26;14.42;80.29
78896;HTU21D;68284;59.124;37.910;2023-07-13T01:57:52;14.42;80.23
78896;HTU21D;68284;59.124;37.910;2023-07-13T02:00:18;14.41;80.16
78896;HTU21D;68284;59.124;37.910;2023-07-13T02:02:47;14.43;80.17
78896;HTU21D;68284;59.124;37.910;2023-07-13T02:05:14;14.42;80.14
78896;HTU21D;68284;59.124;37.910;2023-07-13T02:07:41;14.41;80.12
78896;HTU21D;68284;59.124;37.910;2023-07-13T02:10:09;14.39;80.14
78896;HTU21D;68284;59.124;37.910;2023-07-13T02:12:36;14.33;80.24
78896;HTU21D;68284;59.124;37.910;2023-07-13T02:15:04;14.29;80.43
78896;HTU21D;68284;59.124;37.910;2023-07-13T02:17:31;14.25;80.50
78896;HTU21D;68284;59.124;37.910;2023-07-13T02:19:58;14.23;80.62
78896;HTU21D;68284;59.124;37.910;2023-07-13T02:22:24;14.19;80.72
78896;HTU21D;68284;59.124;37.910;2023-07-13T02:24:50;14.15;80.66
78896;HTU21D;68284;59.124;37.910;2023-07-13T02:27:18;14.13;80.79
78896;HTU21D;68284;59.124;37.910;2023-07-13T02:29:44;14.11;80.92
78896;HTU21D;68284;59.124;37.910;2023-07-13T02:32:10;14.08;81.06
78896;HTU21D;68284;59.124;37.910;2023-07-13T02:34:37;14.06;80.98
78896;HTU21D;68284;59.124;37.910;2023-07-13T02:37:04;14.03;81.10
78896;HTU21D;68284;59.124;37.910;2023-07-13T02:39:30;13.97;81.29
78896;HTU21D;68284;59.124;37.910;2023-07-13T02:41:59;13.91;81.55
78896;HTU21D;68284;59.124;37.910;2023-07-13T02:44:26;13.85;81.75
78896;HTU21D;68284;59.124;37.910;2023-07-13T02:46:52;13.81;82.01
78896;HTU21D;68284;59.124;37.910;2023-07-13T02:49:18;13.78;82.32
78896;HTU21D;68284;59.124;37.910;2023-07-13T02:51:45;13.76;82.15
78896;HTU21D;68284;59.124;37.910;2023-07-13T02:54:11;13.74;82.42
78896;HTU21D;68284;59.124;37.910;2023-07-13T02:56:40;13.70;82.16
78896;HTU21D;68284;59.124;37.910;2023-07-13T02:59:07;13.68;82.36
78896;HTU21D;68284;59.124;37.910;2023-07-13T03:01:33;13.66;82.69
78896;HTU21D;68284;59.124;37.910;2023-07-13T03:04:02;13.64;82.64
78896;HTU21D;68284;59.124;37.910;2023-07-13T03:06:31;13.62;82.71
78896;HTU21D;68284;59.124;37.910;2023-07-13T03:08:58;13.60;82.91
78896;HTU21D;68284;59.124;37.910;2023-07-13T03:11:26;13.61;82.99
78896;HTU21D;68284;59.124;37.910;2023-07-13T03:14:01;13.59;83.02
78896;HTU21D;68284;59.124;37.910;2023-07-13T03:16:31;13.60;83.08
78896;HTU21D;68284;59.124;37.910;2023-07-13T03:18:57;13.63;83.14
78896;HTU21D;68284;59.124;37.910;2023-07-13T03:21:24;13.63;83.00
78896;HTU21D;68284;59.124;37.910;2023-07-13T03:23:50;13.62;82.97
78896;HTU21D;68284;59.124;37.910;2023-07-13T03:26:18;13.60;83.08
78896;HTU21D;68284;59.124;37.910;2023-07-13T03:28:45;13.56;82.90
78896;HTU21D;68284;59.124;37.910;2023-07-13T03:31:20;13.53;83.15
78896;HTU21D;68284;59.124;37.910;2023-07-13T03:33:47;13.48;83.29
78896;HTU21D;68284;59.124;37.910;2023-07-13T03:36:18;13.45;83.43
78896;HTU21D;68284;59.124;37.910;2023-07-13T03:38:50;13.39;83.53
78896;HTU21D;68284;59.124;37.910;2023-07-13T03:41:18;13.36;83.74
78896;HTU21D;68284;59.124;37.910;2023-07-13T03:43:47;13.32;84.02
78896;HTU21D;68284;59.124;37.910;2023-07-13T03:46:18;13.29;84.22
78896;HTU21D;68284;59.124;37.910;2023-07-13T03:48:46;13.25;84.42
78896;HTU21D;68284;59.124;37.910;2023-07-13T03:51:14;13.22;84.61
78896;HTU21D;68284;59.124;37.910;2023-07-13T03:53:43;13.20;84.82
78896;HTU21D;68284;59.124;37.910;2023-07-13T03:56:11;13.19;85.03
78896;HTU21D;68284;59.124;37.910;2023-07-13T03:58:39;13.17;85.12
78896;HTU21D;68284;59.124;37.910;2023-07-13T04:01:14;13.16;85.26
78896;HTU21D;68284;59.124;37.910;2023-07-13T04:03:42;13.14;85.42
78896;HTU21D;68284;59.124;37.910;2023-07-13T04:06:15;13.11;85.52
78896;HTU21D;68284;59.124;37.910;2023-07-13T04:08:49;13.07;85.64
78896;HTU21D;68284;59.124;37.910;2023-07-13T04:11:17;13.05;85.75
78896;HTU21D;68284;59.124;37.910;2023-07-13T04:13:43;13.04;85.84
78896;HTU21D;68284;59.124;37.910;2023-07-13T04:16:12;13.02;85.99
78896;HTU21D;68284;59.124;37.910;2023-07-13T04:18:39;13.04;85.96
78896;HTU21D;68284;59.124;37.910;2023-07-13T04:21:05;13.05;86.02
78896;HTU21D;68284;59.124;37.910;2023-07-13T04:23:31;13.06;86.00
78896;HTU21D;68284;59.124;37.910;2023-07-13T04:25:57;13.07;86.11
78896;HTU21D;68284;59.124;37.910;2023-07-13T04:28:25;13.11;86.15
78896;HTU21D;68284;59.124;37.910;2023-07-13T04:30:52;13.12;86.08
78896;HTU21D;68284;59.124;37.910;2023-07-13T04:33:19;13.14;86.08
78896;HTU21D;68284;59.124;37.910;2023-07-13T04:35:49;13.17;86.15
78896;HTU21D;68284;59.124;37.910;2023-07-13T04:38:16;13.17;86.12
78896;HTU21D;68284;59.124;37.910;2023-07-13T04:40:45;13.19;86.29
78896;HTU21D;68284;59.124;37.910;2023-07-13T04:43:11;13.21;86.16
78896;HTU21D;68284;59.124;37.910;2023-07-13T04:45:37;13.21;86.22
78896;HTU21D;68284;59.124;37.910;2023-07-13T04:48:04;13.23;86.16
78896;HTU21D;68284;59.124;37.910;2023-07-13T04:50:30;13.25;86.22
78896;HTU21D;68284;59.124;37.910;2023-07-13T04:52:56;13.29;86.21
78896;HTU21D;68284;59.124;37.910;2023-07-13T04:55:24;13.29;86.13
78896;HTU21D;68284;59.124;37.910;2023-07-13T04:57:51;13.30;86.28
78896;HTU21D;68284;59.124;37.910;2023-07-13T05:00:17;13.33;86.29
78896;HTU21D;68284;59.124;37.910;2023-07-13T05:02:44;13.35;86.30
78896;HTU21D;68284;59.124;37.910;2023-07-13T05:05:14;13.40;86.30
78896;HTU21D;68284;59.124;37.910;2023-07-13T05:07:40;13.44;86.25
78896;HTU21D;68284;59.124;37.910;2023-07-13T05:10:07;13.44;86.12
78896;HTU21D;68284;59.124;37.910;2023-07-13T05:12:33;13.43;86.16
78896;HTU21D;68284;59.124;37.910;2023-07-13T05:15:02;13.45;86.22
78896;HTU21D;68284;59.124;37.910;2023-07-13T05:17:29;13.43;86.25
78896;HTU21D;68284;59.124;37.910;2023-07-13T05:19:55;13.40;86.41
78896;HTU21D;68284;59.124;37.910;2023-07-13T05:22:21;13.39;86.67
78896;HTU21D;68284;59.124;37.910;2023-07-13T05:24:48;13.37;86.86
78896;HTU21D;68284;59.124;37.910;2023-07-13T05:27:14;13.35;86.83
78896;HTU21D;68284;59.124;37.910;2023-07-13T05:29:40;13.32;86.99
78896;HTU21D;68284;59.124;37.910;2023-07-13T05:32:06;13.32;87.23
78896;HTU21D;68284;59.124;37.910;2023-07-13T05:34:32;13.31;87.09
78896;HTU21D;68284;59.124;37.910;2023-07-13T05:36:59;13.32;87.28
78896;HTU21D;68284;59.124;37.910;2023-07-13T05:39:25;13.32;87.19
78896;HTU21D;68284;59.124;37.910;2023-07-13T05:41:53;13.33;87.32
78896;HTU21D;68284;59.124;37.910;2023-07-13T05:44:19;13.32;87.43
78896;HTU21D;68284;59.124;37.910;2023-07-13T05:46:45;13.33;87.41
78896;HTU21D;68284;59.124;37.910;2023-07-13T05:49:12;13.35;87.47
78896;HTU21D;68284;59.124;37.910;2023-07-13T05:51:38;13.38;87.59
78896;HTU21D;68284;59.124;37.910;2023-07-13T05:54:04;13.39;87.70
78896;HTU21D;68284;59.124;37.910;2023-07-13T05:56:30;13.39;87.53
78896;HTU21D;68284;59.124;37.910;2023-07-13T05:58:56;13.43;87.66
78896;HTU21D;68284;59.124;37.910;2023-07-13T06:01:23;13.46;87.74
78896;HTU21D;68284;59.124;37.910;2023-07-13T06:03:49;13.47;87.51
78896;HTU21D;68284;59.124;37.910;2023-07-13T06:06:16;13.47;87.45
78896;HTU21D;68284;59.124;37.910;2023-07-13T06:08:43;13.46;87.51
78896;HTU21D;68284;59.124;37.910;2023-07-13T06:11:12;13.45;87.57
78896;HTU21D;68284;59.124;37.910;2023-07-13T06:13:39;13.43;87.49
78896;HTU21D;68284;59.124;37.910;2023-07-13T06:16:05;13.41;87.55
78896;HTU21D;68284;59.124;37.910;2023-07-13T06:18:33;13.39;87.50
78896;HTU21D;68284;59.124;37.910;2023-07-13T06:20:59;13.37;87.57
78896;HTU21D;68284;59.124;37.910;2023-07-13T06:23:26;13.36;87.73
78896;HTU21D;68284;59.124;37.910;2023-07-13T06:25:52;13.35;87.84
78896;HTU21D;68284;59.124;37.910;2023-07-13T06:28:18;13.35;87.94
78896;HTU21D;68284;59.124;37.910;2023-07-13T06:30:45;13.35;87.89
78896;HTU21D;68284;59.124;37.910;2023-07-13T06:33:11;13.36;87.93
78896;HTU21D;68284;59.124;37.910;2023-07-13T06:35:37;13.34;87.93
78896;HTU21D;68284;59.124;37.910;2023-07-13T06:38:03;13.35;87.99
78896;HTU21D;68284;59.124;37.910;2023-07-13T06:40:30;13.35;88.00
78896;HTU21D;68284;59.124;37.910;2023-07-13T06:42:57;13.35;88.07
78896;HTU21D;68284;59.124;37.910;2023-07-13T06:45:24;13.38;88.22
78896;HTU21D;68284;59.124;37.910;2023-07-13T06:47:50;13.39;88.25
78896;HTU21D;68284;59.124;37.910;2023-07-13T06:50:16;13.41;88.19
78896;HTU21D;68284;59.124;37.910;2023-07-13T06:52:42;13.45;88.12
78896;HTU21D;68284;59.124;37.910;2023-07-13T06:55:09;13.45;88.05
78896;HTU21D;68284;59.124;37.910;2023-07-13T06:57:35;13.47;88.18
78896;HTU21D;68284;59.124;37.910;2023-07-13T07:00:01;13.49;88.15
78896;HTU21D;68284;59.124;37.910;2023-07-13T07:02:28;13.55;88.12
78896;HTU21D;68284;59.124;37.910;2023-07-13T07:04:54;13.58;88.00
78896;HTU21D;68284;59.124;37.910;2023-07-13T07:07:23;13.60;87.80
78896;HTU21D;68284;59.124;37.910;2023-07-13T07:09:49;13.59;87.67
78896;HTU21D;68284;59.124;37.910;2023-07-13T07:12:15;13.62;87.83
78896;HTU21D;68284;59.124;37.910;2023-07-13T07:14:41;13.63;87.83
78896;HTU21D;68284;59.124;37.910;2023-07-13T07:17:07;13.66;87.80
78896;HTU21D;68284;59.124;37.910;2023-07-13T07:19:34;13.69;87.77
78896;HTU21D;68284;59.124;37.910;2023-07-13T07:22:01;13.70;87.74
78896;HTU21D;68284;59.124;37.910;2023-07-13T07:24:27;13.73;87.52
78896;HTU21D;68284;59.124;37.910;2023-07-13T07:26:53;13.75;87.73
78896;HTU21D;68284;59.124;37.910;2023-07-13T07:29:21;13.78;87.67
78896;HTU21D;68284;59.124;37.910;2023-07-13T07:31:48;13.81;87.51
78896;HTU21D;68284;59.124;37.910;2023-07-13T07:34:14;13.81;87.51
78896;HTU21D;68284;59.124;37.910;2023-07-13T07:36:40;13.84;87.49
78896;HTU21D;68284;59.124;37.910;2023-07-13T07:39:06;13.85;87.54
78896;HTU21D;68284;59.124;37.910;2023-07-13T07:41:32;13.89;87.22
78896;HTU21D;68284;59.124;37.910;2023-07-13T07:43:59;13.88;87.33
78896;HTU21D;68284;59.124;37.910;2023-07-13T07:46:25;13.90;87.48
78896;HTU21D;68284;59.124;37.910;2023-07-13T07:48:51;13.93;87.42
78896;HTU21D;68284;59.124;37.910;2023-07-13T07:51:17;13.94;87.41
78896;HTU21D;68284;59.124;37.910;2023-07-13T07:53:44;13.96;87.43
78896;HTU21D;68284;59.124;37.910;2023-07-13T07:56:11;13.97;87.23
78896;HTU21D;68284;59.124;37.910;2023-07-13T07:58:38;13.99;87.23
78896;HTU21D;68284;59.124;37.910;2023-07-13T08:01:07;14.01;87.19
78896;HTU21D;68284;59.124;37.910;2023-07-13T08:03:34;14.00;87.01
78896;HTU21D;68284;59.124;37.910;2023-07-13T08:06:01;14.03;87.17
78896;HTU21D;68284;59.124;37.910;2023-07-13T08:08:27;14.01;87.23
78896;HTU21D;68284;59.124;37.910;2023-07-13T08:10:53;14.06;87.32
78896;HTU21D;68284;59.124;37.910;2023-07-13T08:13:20;14.07;87.28
78896;HTU21D;68284;59.124;37.910;2023-07-13T08:15:46;14.08;87.17
78896;HTU21D;68284;59.124;37.910;2023-07-13T08:18:13;14.06;87.17
78896;HTU21D;68284;59.124;37.910;2023-07-13T08:20:39;14.07;87.09
78896;HTU21D;68284;59.124;37.910;2023-07-13T08:23:06;14.04;87.03
78896;HTU21D;68284;59.124;37.910;2023-07-13T08:25:33;14.00;87.06
78896;HTU21D;68284;59.124;37.910;2023-07-13T08:28:00;13.98;87.28
78896;HTU21D;68284;59.124;37.910;2023-07-13T08:30:26;13.99;87.45
78896;HTU21D;68284;59.124;37.910;2023-07-13T08:32:52;13.98;87.43
78896;HTU21D;68284;59.124;37.910;2023-07-13T08:35:19;13.95;87.41
78896;HTU21D;68284;59.124;37.910;2023-07-13T08:37:45;13.92;87.61
78896;HTU21D;68284;59.124;37.910;2023-07-13T08:40:11;13.91;87.65
78896;HTU21D;68284;59.124;37.910;2023-07-13T08:42:44;13.90;87.81
78896;HTU21D;68284;59.124;37.910;2023-07-13T08:54:01;14.06;87.98
78896;HTU21D;68284;59.124;37.910;2023-07-13T08:56:30;14.09;87.91
78896;HTU21D;68284;59.124;37.910;2023-07-13T08:59:09;14.14;87.91
78896;HTU21D;68284;59.124;37.910;2023-07-13T09:02:14;14.21;87.70
78896;HTU21D;68284;59.124;37.910;2023-07-13T09:04:57;14.22;87.59
78896;HTU21D;68284;59.124;37.910;2023-07-13T09:10:17;14.26;87.41
78896;HTU21D;68284;59.124;37.910;2023-07-13T09:12:53;14.27;87.35
78896;HTU21D;68284;59.124;37.910;2023-07-13T09:15:23;14.26;87.27
78896;HTU21D;68284;59.124;37.910;2023-07-13T09:17:51;14.28;87.33
78896;HTU21D;68284;59.124;37.910;2023-07-13T09:20:26;14.29;87.53
78896;HTU21D;68284;59.124;37.910;2023-07-13T09:22:56;14.34;87.51
78896;HTU21D;68284;59.124;37.910;2023-07-13T09:25:38;14.39;87.54
78896;HTU21D;68284;59.124;37.910;2023-07-13T09:28:13;14.42;87.57
78896;HTU21D;68284;59.124;37.910;2023-07-13T09:33:22;14.49;87.26
78896;HTU21D;68284;59.124;37.910;2023-07-13T09:35:48;14.49;87.09
78896;HTU21D;68284;59.124;37.910;2023-07-13T09:38:18;14.49;87.27
78896;HTU21D;68284;59.124;37.910;2023-07-13T09:46:39;14.59;87.31
78896;HTU21D;68284;59.124;37.910;2023-07-13T09:49:09;14.59;87.21
78896;HTU21D;68284;59.124;37.910;2023-07-13T09:51:37;14.60;87.19
78896;HTU21D;68284;59.124;37.910;2023-07-13T09:54:05;14.59;86.98
78896;HTU21D;68284;59.124;37.910;2023-07-13T09:56:31;14.58;86.93
78896;HTU21D;68284;59.124;37.910;2023-07-13T09:58:58;14.56;86.90
78896;HTU21D;68284;59.124;37.910;2023-07-13T10:01:34;14.52;86.94
78896;HTU21D;68284;59.124;37.910;2023-07-13T10:04:00;14.52;87.15
78896;HTU21D;68284;59.124;37.910;2023-07-13T10:06:27;14.53;87.19
78896;HTU21D;68284;59.124;37.910;2023-07-13T10:08:56;14.53;87.28
78896;HTU21D;68284;59.124;37.910;2023-07-13T10:11:29;14.52;87.32
78896;HTU21D;68284;59.124;37.910;2023-07-13T10:13:59;14.50;87.40
78896;HTU21D;68284;59.124;37.910;2023-07-13T10:16:28;14.45;87.54
78896;HTU21D;68284;59.124;37.910;2023-07-13T10:19:02;14.43;87.77
78896;HTU21D;68284;59.124;37.910;2023-07-13T10:21:42;14.42;87.96
78896;HTU21D;68284;59.124;37.910;2023-07-13T10:24:21;14.42;88.18
78896;HTU21D;68284;59.124;37.910;2023-07-13T10:27:32;14.44;88.39
78896;HTU21D;68284;59.124;37.910;2023-07-13T10:30:00;14.48;88.60
78896;HTU21D;68284;59.124;37.910;2023-07-13T10:32:27;14.50;88.46
78896;HTU21D;68284;59.124;37.910;2023-07-13T10:34:54;14.50;88.51
78896;HTU21D;68284;59.124;37.910;2023-07-13T10:37:29;14.51;88.70
78896;HTU21D;68284;59.124;37.910;2023-07-13T10:39:57;14.55;88.66
78896;HTU21D;68284;59.124;37.910;2023-07-13T10:42:38;14.58;88.62
78896;HTU21D;68284;59.124;37.910;2023-07-13T10:45:14;14.58;88.54
78896;HTU21D;68284;59.124;37.910;2023-07-13T10:47:42;14.60;88.55
78896;HTU21D;68284;59.124;37.910;2023-07-13T10:50:17;14.60;88.54
78896;HTU21D;68284;59.124;37.910;2023-07-13T10:52:49;14.63;88.60
78896;HTU21D;68284;59.124;37.910;2023-07-13T10:58:29;14.65;88.57
78896;HTU21D;68284;59.124;37.910;2023-07-13T11:03:35;14.70;88.50
78896;HTU21D;68284;59.124;37.910;2023-07-13T11:08:37;14.79;88.55
78896;HTU21D;68284;59.124;37.910;2023-07-13T11:22:02;14.92;88.27
78896;HTU21D;68284;59.124;37.910;2023-07-13T11:24:47;14.94;88.20
78896;HTU21D;68284;59.124;37.910;2023-07-13T11:30:22;14.93;88.08
78896;HTU21D;68284;59.124;37.910;2023-07-13T11:33:01;14.93;88.26
78896;HTU21D;68284;59.124;37.910;2023-07-13T11:35:29;14.97;88.29
78896;HTU21D;68284;59.124;37.910;2023-07-13T11:37:55;15.00;88.31
78896;HTU21D;68284;59.124;37.910;2023-07-13T11:40:24;15.06;88.26
78896;HTU21D;68284;59.124;37.910;2023-07-13T11:42:59;15.11;88.22
78896;HTU21D;68284;59.124;37.910;2023-07-13T11:45:27;15.14;88.23
78896;HTU21D;68284;59.124;37.910;2023-07-13T11:47:54;15.19;88.14
78896;HTU21D;68284;59.124;37.910;2023-07-13T11:50:27;15.24;87.94
78896;HTU21D;68284;59.124;37.910;2023-07-13T11:52:54;15.25;87.81
78896;HTU21D;68284;59.124;37.910;2023-07-13T11:55:23;15.27;87.78
78896;HTU21D;68284;59.124;37.910;2023-07-13T11:57:56;15.29;87.77
78896;HTU21D;68284;59.124;37.910;2023-07-13T12:00:29;15.32;87.75
78896;HTU21D;68284;59.124;37.910;2023-07-13T12:02:59;15.37;87.76
78896;HTU21D;68284;59.124;37.910;2023-07-13T12:05:27;15.41;87.73
78896;HTU21D;68284;59.124;37.910;2023-07-13T12:07:53;15.44;87.77
78896;HTU21D;68284;59.124;37.910;2023-07-13T12:10:24;15.47;87.70
78896;HTU21D;68284;59.124;37.910;2023-07-13T12:15:17;15.47;87.42
78896;HTU21D;68284;59.124;37.910;2023-07-13T12:17:45;15.48;87.64
78896;HTU21D;68284;59.124;37.910;2023-07-13T12:20:25;15.52;87.47
78896;HTU21D;68284;59.124;37.910;2023-07-13T12:23:26;15.58;87.35
78896;HTU21D;68284;59.124;37.910;2023-07-13T12:25:56;15.59;87.16
78896;HTU21D;68284;59.124;37.910;2023-07-13T12:28:34;15.60;87.09
78896;HTU21D;68284;59.124;37.910;2023-07-13T12:31:07;15.63;87.08
78896;HTU21D;68284;59.124;37.910;2023-07-13T12:33:45;15.67;87.08
78896;HTU21D;68284;59.124;37.910;2023-07-13T12:36:13;15.69;86.99
78896;HTU21D;68284;59.124;37.910;2023-07-13T12:38:40;15.68;86.91
78896;HTU21D;68284;59.124;37.910;2023-07-13T12:41:08;15.70;86.95
78896;HTU21D;68284;59.124;37.910;2023-07-13T12:43:36;15.71;87.01
78896;HTU21D;68284;59.124;37.910;2023-07-13T12:46:17;15.74;87.04
78896;HTU21D;68284;59.124;37.910;2023-07-13T12:48:44;15.77;87.06
78896;HTU21D;68284;59.124;37.910;2023-07-13T12:51:14;15.82;87.00
78896;HTU21D;68284;59.124;37.910;2023-07-13T12:53:47;15.85;86.93
78896;HTU21D;68284;59.124;37.910;2023-07-13T12:56:21;15.89;86.93
78896;HTU21D;68284;59.124;37.910;2023-07-13T12:58:49;15.93;86.90
78896;HTU21D;68284;59.124;37.910;2023-07-13T13:01:27;15.96;86.75
78896;HTU21D;68284;59.124;37.910;2023-07-13T13:03:54;16.00;86.66
78896;HTU21D;68284;59.124;37.910;2023-07-13T13:06:28;16.01;86.51
78896;HTU21D;68284;59.124;37.910;2023-07-13T13:08:57;16.04;86.50
78896;HTU21D;68284;59.124;37.910;2023-07-13T13:11:28;16.07;86.41
78896;HTU21D;68284;59.124;37.910;2023-07-13T13:13:54;16.11;86.14
78896;HTU21D;68284;59.124;37.910;2023-07-13T13:16:30;16.12;85.97
78896;HTU21D;68284;59.124;37.910;2023-07-13T13:19:18;16.16;85.79
78896;HTU21D;68284;59.124;37.910;2023-07-13T13:21:47;16.19;85.78
78896;HTU21D;68284;59.124;37.910;2023-07-13T13:24:18;16.25;85.67
78896;HTU21D;68284;59.124;37.910;2023-07-13T13:26:46;16.29;85.39
78896;HTU21D;68284;59.124;37.910;2023-07-13T13:29:21;16.32;85.22
78896;HTU21D;68284;59.124;37.910;2023-07-13T13:31:50;16.34;85.13
78896;HTU21D;68284;59.124;37.910;2023-07-13T13:34:20;16.36;85.07
78896;HTU21D;68284;59.124;37.910;2023-07-13T13:36:47;16.41;84.93
78896;HTU21D;68284;59.124;37.910;2023-07-13T13:39:28;16.41;84.84
78896;HTU21D;68284;59.124;37.910;2023-07-13T13:41:55;16.42;84.97
78896;HTU21D;68284;59.124;37.910;2023-07-13T13:44:22;16.43;84.95
78896;HTU21D;68284;59.124;37.910;2023-07-13T13:46:55;16.47;84.90
78896;HTU21D;68284;59.124;37.910;2023-07-13T13:49:24;16.49;84.90
78896;HTU21D;68284;59.124;37.910;2023-07-13T13:51:51;16.54;84.82
78896;HTU21D;68284;59.124;37.910;2023-07-13T13:54:19;16.51;84.87
78896;HTU21D;68284;59.124;37.910;2023-07-13T13:56:50;16.52;84.94
78896;HTU21D;68284;59.124;37.910;2023-07-13T13:59:17;16.56;84.95
78896;HTU21D;68284;59.124;37.910;2023-07-13T14:01:45;16.59;84.87
78896;HTU21D;68284;59.124;37.910;2023-07-13T14:04:18;16.59;84.90
78896;HTU21D;68284;59.124;37.910;2023-07-13T14:06:45;16.60;84.92
78896;HTU21D;68284;59.124;37.910;2023-07-13T14:09:15;16.62;84.83
78896;HTU21D;68284;59.124;37.910;2023-07-13T14:11:42;16.63;84.69
78896;HTU21D;68284;59.124;37.910;2023-07-13T14:14:22;16.65;84.53
78896;HTU21D;68284;59.124;37.910;2023-07-13T14:16:49;16.66;84.58
78896;HTU21D;68284;59.124;37.910;2023-07-13T14:19:20;16.70;84.50
78896;HTU21D;68284;59.124;37.910;2023-07-13T14:21:46;16.71;84.35
78896;HTU21D;68284;59.124;37.910;2023-07-13T14:24:15;16.73;84.43
78896;HTU21D;68284;59.124;37.910;2023-07-13T14:26:42;16.75;84.40
78896;HTU21D;68284;59.124;37.910;2023-07-13T14:29:18;16.81;84.19
78896;HTU21D;68284;59.124;37.910;2023-07-13T14:31:45;16.85;84.13
78896;HTU21D;68284;59.124;37.910;2023-07-13T14:34:12;16.89;84.07
78896;HTU21D;68284;59.124;37.910;2023-07-13T14:36:42;16.94;83.97
78896;HTU21D;68284;59.124;37.910;2023-07-13T14:39:14;16.99;83.93
78896;HTU21D;68284;59.124;37.910;2023-07-13T14:41:40;17.05;83.89
78896;HTU21D;68284;59.124;37.910;2023-07-13T14:44:27;17.10;83.60
78896;HTU21D;68284;59.124;37.910;2023-07-13T14:46:57;17.17;83.68
78896;HTU21D;68284;59.124;37.910;2023-07-13T14:49:42;17.21;83.55
78896;HTU21D;68284;59.124;37.910;2023-07-13T14:52:18;17.23;83.52
78896;HTU21D;68284;59.124;37.910;2023-07-13T14:54:46;17.28;83.46
78896;HTU21D;68284;59.124;37.910;2023-07-13T14:57:19;17.28;83.22
78896;HTU21D;68284;59.124;37.910;2023-07-13T14:59:47;17.31;83.05
78896;HTU21D;68284;59.124;37.910;2023-07-13T15:02:25;17.31;82.81
78896;HTU21D;68284;59.124;37.910;2023-07-13T15:04:53;17.30;82.46
78896;HTU21D;68284;59.124;37.910;2023-07-13T15:07:21;17.30;82.10
78896;HTU21D;68284;59.124;37.910;2023-07-13T15:09:50;17.29;81.82
78896;HTU21D;68284;59.124;37.910;2023-07-13T15:12:17;17.30;81.68
78896;HTU21D;68284;59.124;37.910;2023-07-13T15:14:44;17.31;81.48
78896;HTU21D;68284;59.124;37.910;2023-07-13T15:17:18;17.28;81.37
78896;HTU21D;68284;59.124;37.910;2023-07-13T15:19:49;17.26;81.77
78896;HTU21D;68284;59.124;37.910;2023-07-13T15:22:15;17.26;81.62
78896;HTU21D;68284;59.124;37.910;2023-07-13T15:24:42;17.29;81.43
78896;HTU21D;68284;59.124;37.910;2023-07-13T15:27:11;17.32;81.07
78896;HTU21D;68284;59.124;37.910;2023-07-13T15:29:38;17.33;81.04
78896;HTU21D;68284;59.124;37.910;2023-07-13T15:32:13;17.34;80.90
78896;HTU21D;68284;59.124;37.910;2023-07-13T15:34:40;17.36;80.70
78896;HTU21D;68284;59.124;37.910;2023-07-13T15:37:14;17.38;80.54
78896;HTU21D;68284;59.124;37.910;2023-07-13T15:39:42;17.39;80.56
78896;HTU21D;68284;59.124;37.910;2023-07-13T15:42:15;17.45;80.37
78896;HTU21D;68284;59.124;37.910;2023-07-13T15:44:41;17.47;80.33
78896;HTU21D;68284;59.124;37.910;2023-07-13T15:47:12;17.47;80.15
78896;HTU21D;68284;59.124;37.910;2023-07-13T15:49:39;17.46;80.14
78896;HTU21D;68284;59.124;37.910;2023-07-13T15:52:16;17.44;80.13
78896;HTU21D;68284;59.124;37.910;2023-07-13T15:54:43;17.43;80.20
78896;HTU21D;68284;59.124;37.910;2023-07-13T15:57:10;17.40;80.17
78896;HTU21D;68284;59.124;37.910;2023-07-13T15:59:38;17.41;80.20